Terminal Aerodrome Forecast
Issued by NWS Amarillo, TX

Home | Current Version | Previous Version | Text Only | Print | Product List | Glossary On
Versions: 1 2 3 4 5 6 7 8 9 10 11 12 13 14 15 16 17 18 19 20 21
640
FTUS44 KAMA 231120
TAFGUY
TAF
KGUY 231120Z 2312/2412 21008KT P6SM SCT300
     FM231700 23015G25KT P6SM BKN300
     FM240000 21012KT P6SM BKN300
     FM241000 22014KT P6SM FEW300=

USA.gov is the U.S. government's official web portal to all federal, state and local government web resources and services.